createdAt,value
2018-05-25T00:01:32.844Z,44.17
2018-05-25T00:04:01.261Z,44.27
2018-05-25T00:06:29.711Z,44.33
2018-05-25T00:08:59.628Z,44.51
2018-05-25T00:11:27.972Z,44.59
2018-05-25T00:13:56.355Z,44.72
2018-05-25T00:16:24.707Z,45.02
2018-05-25T00:18:53.943Z,45.03
2018-05-25T00:21:22.380Z,45.11
2018-05-25T00:23:51.561Z,45.08
2018-05-25T00:26:19.965Z,45.34
2018-05-25T00:28:48.347Z,45.51
2018-05-25T00:31:16.806Z,45.57
2018-05-25T00:33:45.927Z,45.79
2018-05-25T00:36:14.357Z,45.89
2018-05-25T00:38:43.505Z,45.90
2018-05-25T00:41:11.936Z,45.98
2018-05-25T00:43:40.338Z,46.05
2018-05-25T00:46:09.794Z,46.05
2018-05-25T00:48:38.191Z,46.29
2018-05-25T00:51:06.564Z,46.23
2018-05-25T00:53:34.960Z,46.33
2018-05-25T00:56:04.144Z,46.30
2018-05-25T00:58:32.520Z,46.35
2018-05-25T01:01:00.994Z,46.38
2018-05-25T01:03:30.168Z,46.45
2018-05-25T01:05:58.585Z,46.46
2018-05-25T01:08:27.001Z,46.54
2018-05-25T01:10:55.461Z,46.73
2018-05-25T01:13:23.832Z,46.69
2018-05-25T01:15:52.224Z,46.83
2018-05-25T01:18:21.379Z,46.81
2018-05-25T01:20:50.549Z,46.82
2018-05-25T01:23:18.929Z,46.89
2018-05-25T01:25:47.371Z,46.88
2018-05-25T01:28:15.898Z,46.93
2018-05-25T01:30:44.353Z,47.01
2018-05-25T01:33:13.511Z,46.96
2018-05-25T01:35:41.986Z,46.95
2018-05-25T01:38:10.578Z,46.99
2018-05-25T01:40:38.948Z,46.96
2018-05-25T01:43:07.408Z,46.92
2018-05-25T01:45:35.799Z,46.98
2018-05-25T01:48:04.248Z,46.90
2018-05-25T01:50:32.645Z,46.94
2018-05-25T01:53:01.072Z,47.00
2018-05-25T01:55:29.573Z,47.04
2018-05-25T01:57:58.762Z,47.03
2018-05-25T02:00:27.924Z,47.14
2018-05-25T02:02:56.405Z,47.07
2018-05-25T02:05:24.854Z,47.32
2018-05-25T02:07:53.378Z,47.17
2018-05-25T02:10:21.827Z,47.17
2018-05-25T02:12:50.199Z,47.18
2018-05-25T02:15:18.593Z,47.26
2018-05-25T02:17:46.987Z,47.14
2018-05-25T02:20:15.352Z,47.30
2018-05-25T02:22:43.824Z,47.35
2018-05-25T02:25:12.215Z,47.25
2018-05-25T02:27:40.629Z,47.39
2018-05-25T02:30:09.086Z,47.39
2018-05-25T02:32:37.499Z,47.48
2018-05-25T02:35:06.644Z,47.60
2018-05-25T02:37:35.080Z,47.71
2018-05-25T02:40:03.505Z,47.80
2018-05-25T02:42:31.941Z,47.90
2018-05-25T02:45:01.084Z,48.04
2018-05-25T02:47:29.489Z,48.04
2018-05-25T02:49:57.996Z,48.13
2018-05-25T02:52:26.404Z,48.17
2018-05-25T02:54:54.778Z,48.24
2018-05-25T02:57:23.300Z,48.33
2018-05-25T02:59:51.669Z,48.59
2018-05-25T03:02:20.177Z,48.65
2018-05-25T03:04:48.586Z,48.71
2018-05-25T03:07:17.008Z,48.84
2018-05-25T03:09:45.469Z,48.84
2018-05-25T03:12:13.843Z,48.93
2018-05-25T03:14:42.223Z,49.01
2018-05-25T03:17:10.625Z,49.02
2018-05-25T03:19:39.034Z,49.08
2018-05-25T03:22:07.468Z,49.23
2018-05-25T03:24:35.859Z,49.18
2018-05-25T03:27:04.261Z,49.28
2018-05-25T03:29:32.600Z,49.33
2018-05-25T03:32:01.022Z,49.49
2018-05-25T03:34:29.389Z,49.63
2018-05-25T03:36:57.723Z,49.56
2018-05-25T03:39:26.077Z,49.67
2018-05-25T03:41:55.206Z,49.58
2018-05-25T03:44:23.580Z,49.69
2018-05-25T03:46:52.074Z,49.36
2018-05-25T03:49:20.476Z,49.61
2018-05-25T03:51:48.895Z,49.62
2018-05-25T03:54:18.012Z,49.67
2018-05-25T03:56:46.406Z,49.65
2018-05-25T03:59:32.431Z,49.54
2018-05-25T04:02:00.817Z,49.56
2018-05-25T04:04:30.055Z,49.43
2018-05-25T04:06:58.470Z,49.49
2018-05-25T04:09:26.894Z,49.59
2018-05-25T04:11:56.039Z,49.46
2018-05-25T04:14:24.403Z,49.32
2018-05-25T04:16:52.739Z,49.23
2018-05-25T04:19:21.862Z,49.51
2018-05-25T04:21:50.211Z,49.36
2018-05-25T04:24:18.552Z,49.45
2018-05-25T04:26:46.915Z,49.47
2018-05-25T04:29:15.275Z,49.30
2018-05-25T04:31:43.667Z,49.07
2018-05-25T04:34:12.042Z,49.12
2018-05-25T04:36:40.413Z,49.34
2018-05-25T04:39:08.790Z,49.21
2018-05-25T04:41:37.177Z,49.08
2018-05-25T04:44:05.519Z,49.12
2018-05-25T04:46:34.624Z,48.99
2018-05-25T04:49:03.817Z,48.98
2018-05-25T04:51:33.037Z,48.78
2018-05-25T04:54:01.441Z,48.67
2018-05-25T04:56:29.803Z,48.74
2018-05-25T04:58:58.146Z,48.58
2018-05-25T05:01:27.331Z,48.63
2018-05-25T05:03:55.677Z,48.54
2018-05-25T05:06:24.029Z,48.64
2018-05-25T05:08:52.424Z,48.43
2018-05-25T05:11:20.997Z,48.56
2018-05-25T05:13:49.360Z,48.45
2018-05-25T05:16:17.716Z,48.32
2018-05-25T05:18:46.822Z,48.14
2018-05-25T05:21:15.930Z,48.22
2018-05-25T05:23:44.311Z,48.06
2018-05-25T05:26:12.686Z,47.67
2018-05-25T05:28:41.029Z,47.26
2018-05-25T05:31:09.413Z,46.54
2018-05-25T05:33:38.578Z,46.33
2018-05-25T05:36:06.947Z,45.66
2018-05-25T05:38:35.333Z,45.35
2018-05-25T05:41:03.736Z,44.90
2018-05-25T05:43:32.093Z,43.43
2018-05-25T05:46:00.637Z,36.09
2018-05-25T05:48:29.015Z,29.81
2018-05-25T05:50:57.438Z,28.14
2018-05-25T05:53:25.884Z,25.91
2018-05-25T05:55:54.227Z,24.78
2018-05-25T05:58:22.609Z,25.36
2018-05-25T06:00:51.791Z,23.23
2018-05-25T06:03:20.208Z,23.12
2018-05-25T06:05:48.549Z,22.72
2018-05-25T06:08:16.926Z,22.60
2018-05-25T06:10:45.314Z,21.95
2018-05-25T06:13:14.415Z,21.19
2018-05-25T06:15:43.587Z,22.43
2018-05-25T06:18:11.968Z,23.06
2018-05-25T06:20:40.353Z,23.47
2018-05-25T06:23:08.699Z,22.25
2018-05-25T06:25:38.001Z,22.07
2018-05-25T06:28:06.436Z,22.30
2018-05-25T06:30:35.598Z,22.16
2018-05-25T06:33:03.995Z,22.42
2018-05-25T06:35:32.395Z,21.61
2018-05-25T06:38:01.541Z,22.28
2018-05-25T06:40:29.900Z,22.01
2018-05-25T06:42:58.268Z,25.83
2018-05-25T06:45:26.648Z,30.91
2018-05-25T06:47:55.031Z,32.53
2018-05-25T06:50:23.415Z,34.65
2018-05-25T06:52:51.779Z,34.31
2018-05-25T06:55:20.138Z,34.80
2018-05-25T06:57:49.301Z,34.88
2018-05-25T07:00:18.528Z,35.18
2018-05-25T07:02:47.641Z,35.17
2018-05-25T07:05:15.993Z,35.63
2018-05-25T07:07:44.370Z,35.52
2018-05-25T07:10:12.741Z,36.09
2018-05-25T07:12:41.160Z,36.25
2018-05-25T07:15:09.508Z,36.27
2018-05-25T07:17:37.896Z,35.78
2018-05-25T07:20:07.018Z,35.36
2018-05-25T07:22:35.372Z,35.19
2018-05-25T07:25:04.599Z,35.59
2018-05-25T07:27:32.975Z,35.40
2018-05-25T07:30:01.346Z,35.17
2018-05-25T07:32:29.725Z,34.59
2018-05-25T07:34:58.061Z,34.92
2018-05-25T07:37:26.446Z,35.00
2018-05-25T07:39:54.865Z,34.26
2018-05-25T07:42:23.262Z,34.73
2018-05-25T07:44:51.630Z,35.05
2018-05-25T07:47:20.023Z,34.33
2018-05-25T07:49:48.428Z,34.73
2018-05-25T07:52:16.853Z,34.35
2018-05-25T07:54:45.249Z,34.29
2018-05-25T07:57:13.607Z,33.46
2018-05-25T07:59:42.006Z,33.53
2018-05-25T08:02:10.371Z,33.64
2018-05-25T08:04:38.723Z,33.81
2018-05-25T08:07:07.860Z,33.32
2018-05-25T08:09:36.329Z,32.80
2018-05-25T08:12:04.669Z,32.55
2018-05-25T08:14:33.825Z,32.76
2018-05-25T08:17:02.217Z,32.44
2018-05-25T08:19:30.575Z,32.12
2018-05-25T08:21:58.948Z,32.25
2018-05-25T08:24:27.292Z,31.81
2018-05-25T08:26:56.489Z,32.09
2018-05-25T08:29:25.611Z,30.94
2018-05-25T08:31:54.051Z,30.95
2018-05-25T08:34:23.365Z,30.44
2018-05-25T08:36:52.530Z,30.36
2018-05-25T08:39:20.937Z,30.20
2018-05-25T08:41:50.140Z,29.43
2018-05-25T08:44:19.258Z,29.22
2018-05-25T08:46:47.640Z,26.79
2018-05-25T08:49:16.223Z,23.57
2018-05-25T08:51:44.573Z,21.63
2018-05-25T08:54:13.711Z,21.48
2018-05-25T08:56:42.080Z,20.54
2018-05-25T08:59:10.557Z,20.24
2018-05-25T09:01:38.957Z,19.86
2018-05-25T09:04:07.306Z,19.37
2018-05-25T09:06:35.694Z,19.71
2018-05-25T09:09:04.054Z,19.39
2018-05-25T09:11:32.477Z,19.90
2018-05-25T09:14:00.953Z,19.96
2018-05-25T09:16:29.360Z,19.32
2018-05-25T09:18:57.746Z,19.86
2018-05-25T09:21:26.100Z,19.22
2018-05-25T09:23:54.496Z,18.96
2018-05-25T09:26:22.925Z,19.50
2018-05-25T09:28:51.291Z,19.61
2018-05-25T09:31:19.657Z,20.07
2018-05-25T09:33:48.872Z,19.94
2018-05-25T09:36:17.435Z,19.24
2018-05-25T09:38:45.766Z,19.62
2018-05-25T09:41:14.109Z,19.07
2018-05-25T09:43:42.469Z,19.15
2018-05-25T09:46:11.617Z,19.45
2018-05-25T09:48:40.033Z,19.95
2018-05-25T09:51:09.140Z,19.88
2018-05-25T09:53:38.253Z,19.88
2018-05-25T09:56:06.656Z,19.77
2018-05-25T09:58:35.093Z,20.06
2018-05-25T10:01:04.204Z,19.59
2018-05-25T10:03:32.590Z,19.79
2018-05-25T10:06:00.942Z,19.82
2018-05-25T10:08:30.231Z,19.34
2018-05-25T10:10:58.577Z,19.84
2018-05-25T10:13:26.963Z,19.62
2018-05-25T10:15:55.343Z,20.30
2018-05-25T10:18:23.706Z,22.43
2018-05-25T10:20:52.131Z,21.48
2018-05-25T10:23:21.249Z,23.04
2018-05-25T10:25:49.619Z,24.40
2018-05-25T10:28:17.996Z,24.46
2018-05-25T10:30:47.147Z,25.36
2018-05-25T10:33:15.571Z,24.56
2018-05-25T10:35:44.670Z,25.13
2018-05-25T10:38:13.898Z,25.56
2018-05-25T10:40:42.259Z,25.87
2018-05-25T10:43:10.643Z,26.41
2018-05-25T10:45:39.138Z,26.54
2018-05-25T10:48:07.539Z,26.46
2018-05-25T10:50:35.908Z,25.90
2018-05-25T10:53:04.254Z,25.74
2018-05-25T10:55:32.591Z,26.44
2018-05-25T10:58:00.964Z,26.39
2018-05-25T11:00:29.396Z,26.23
2018-05-25T11:02:57.935Z,26.52
2018-05-25T11:05:26.353Z,26.79
2018-05-25T11:07:54.762Z,26.35
2018-05-25T11:10:24.063Z,26.58
2018-05-25T11:12:52.405Z,26.00
2018-05-25T11:15:20.865Z,25.84
2018-05-25T11:17:49.984Z,25.47
2018-05-25T11:20:18.365Z,25.26
2018-05-25T11:22:46.779Z,25.05
2018-05-25T11:25:15.132Z,24.62
2018-05-25T11:27:43.493Z,24.18
2018-05-25T11:30:11.890Z,24.67
2018-05-25T11:32:40.262Z,24.93
2018-05-25T11:35:08.681Z,24.92
2018-05-25T11:37:37.121Z,25.32
2018-05-25T11:40:05.499Z,25.07
2018-05-25T11:42:33.869Z,24.51
2018-05-25T11:45:02.273Z,25.53
2018-05-25T11:47:30.680Z,25.94
2018-05-25T11:49:59.056Z,25.96
2018-05-25T11:52:27.443Z,25.71
2018-05-25T11:54:55.844Z,25.33
2018-05-25T11:57:24.991Z,24.83
2018-05-25T11:59:53.382Z,25.01
2018-05-25T12:02:21.765Z,24.65
2018-05-25T12:04:50.211Z,24.74
2018-05-25T12:07:18.577Z,24.14
2018-05-25T12:09:46.930Z,23.99
2018-05-25T12:12:15.338Z,24.19
2018-05-25T12:14:43.767Z,24.98
2018-05-25T12:17:12.124Z,25.10
2018-05-25T12:19:40.502Z,24.78
2018-05-25T12:22:08.909Z,24.74
2018-05-25T12:24:37.314Z,24.38
2018-05-25T12:27:06.542Z,24.48
2018-05-25T12:29:34.944Z,24.05
2018-05-25T12:32:03.316Z,24.07
2018-05-25T12:34:31.711Z,24.05
2018-05-25T12:37:00.077Z,23.61
2018-05-25T12:39:28.459Z,23.19
2018-05-25T12:41:56.838Z,22.53
2018-05-25T12:44:25.323Z,22.80
2018-05-25T12:46:53.706Z,22.88
2018-05-25T12:49:22.082Z,22.56
2018-05-25T12:51:50.529Z,22.66
2018-05-25T12:54:18.881Z,23.74
2018-05-25T12:56:48.078Z,23.21
2018-05-25T12:59:16.391Z,22.57
2018-05-25T13:01:44.855Z,22.85
2018-05-25T13:04:13.234Z,22.81
2018-05-25T13:06:41.605Z,22.72
2018-05-25T13:09:09.965Z,23.45
2018-05-25T13:11:39.157Z,22.77
2018-05-25T13:14:08.393Z,23.72
2018-05-25T13:16:36.748Z,25.51
2018-05-25T13:19:05.974Z,25.47
2018-05-25T13:21:34.341Z,24.29
2018-05-25T13:24:02.681Z,23.40
2018-05-25T13:26:31.050Z,23.29
2018-05-25T13:28:59.429Z,24.57
2018-05-25T13:34:02.308Z,24.56
2018-05-25T13:36:30.698Z,25.21
2018-05-25T13:38:59.044Z,25.21
2018-05-25T13:41:27.420Z,24.12
2018-05-25T13:43:55.757Z,23.91
2018-05-25T13:46:24.176Z,23.65
2018-05-25T13:48:52.546Z,23.36
2018-05-25T13:51:20.921Z,23.81
2018-05-25T13:53:49.417Z,23.96
2018-05-25T13:56:17.893Z,23.49
2018-05-25T13:58:46.292Z,22.91
2018-05-25T14:01:14.635Z,22.63
2018-05-25T14:03:42.989Z,22.50
2018-05-25T14:06:12.117Z,22.63
2018-05-25T14:08:40.485Z,22.71
2018-05-25T14:11:08.915Z,22.76
2018-05-25T14:13:37.362Z,22.37
2018-05-25T14:16:05.746Z,22.30
2018-05-25T14:18:34.110Z,22.51
2018-05-25T14:21:02.458Z,22.73
2018-05-25T14:23:30.868Z,22.41
2018-05-25T14:25:59.217Z,22.22
2018-05-25T14:28:27.560Z,22.30
2018-05-25T14:30:56.008Z,21.99
2018-05-25T14:33:24.493Z,22.57
2018-05-25T14:35:52.910Z,22.49
2018-05-25T14:38:21.291Z,22.68
2018-05-25T14:40:49.653Z,22.79
2018-05-25T14:43:17.994Z,22.88
2018-05-25T14:45:46.368Z,23.58
2018-05-25T14:48:15.543Z,24.27
2018-05-25T14:50:43.960Z,24.60
2018-05-25T14:53:12.528Z,24.79
2018-05-25T14:55:41.742Z,24.29
2018-05-25T14:58:10.134Z,24.38
2018-05-25T15:00:38.615Z,24.12
2018-05-25T15:03:07.086Z,24.08
2018-05-25T15:05:35.965Z,24.02
2018-05-25T15:08:04.303Z,24.07
2018-05-25T15:10:32.690Z,23.74
2018-05-25T15:13:01.161Z,24.17
2018-05-25T15:15:29.558Z,24.03
2018-05-25T15:17:58.709Z,23.97
2018-05-25T15:20:27.050Z,24.33
2018-05-25T15:22:55.444Z,24.54
2018-05-25T15:25:23.808Z,24.56
2018-05-25T15:27:52.149Z,24.25
2018-05-25T15:30:20.576Z,24.07
2018-05-25T15:32:48.958Z,24.18
2018-05-25T15:35:17.303Z,24.70
2018-05-25T15:37:46.428Z,24.79
2018-05-25T15:40:14.772Z,24.77
2018-05-25T15:42:43.949Z,25.18
2018-05-25T15:45:12.299Z,24.94
2018-05-25T15:47:40.673Z,24.47
2018-05-25T15:50:09.116Z,23.90
2018-05-25T15:52:38.296Z,24.80
2018-05-25T15:55:06.657Z,24.87
2018-05-25T15:57:35.076Z,24.87
2018-05-25T16:00:04.264Z,25.64
2018-05-25T16:02:33.609Z,25.56
2018-05-25T16:05:01.872Z,25.69
2018-05-25T16:07:30.261Z,24.92
2018-05-25T16:09:58.665Z,24.70
2018-05-25T16:12:27.085Z,25.10
2018-05-25T16:14:56.223Z,25.10
2018-05-25T16:17:24.609Z,25.03
2018-05-25T16:19:53.002Z,25.33
2018-05-25T16:22:21.384Z,25.40
2018-05-25T16:24:49.763Z,25.73
2018-05-25T16:27:18.158Z,25.49
2018-05-25T16:29:46.555Z,25.43
2018-05-25T16:32:15.755Z,25.13
2018-05-25T16:34:44.881Z,25.63
2018-05-25T16:37:13.224Z,25.53
2018-05-25T16:39:42.381Z,26.26
2018-05-25T16:42:10.820Z,25.84
2018-05-25T16:44:39.222Z,25.88
2018-05-25T16:47:07.655Z,26.62
2018-05-25T16:49:36.031Z,26.88
2018-05-25T16:52:05.174Z,27.31
2018-05-25T16:54:33.531Z,27.53
2018-05-25T16:57:01.987Z,27.65
2018-05-25T16:59:31.212Z,28.02
2018-05-25T17:01:59.576Z,28.03
2018-05-25T17:04:27.956Z,28.49
2018-05-25T17:06:57.085Z,28.58
2018-05-25T17:09:25.423Z,28.73
2018-05-25T17:11:54.623Z,29.02
2018-05-25T17:14:23.741Z,29.12
2018-05-25T17:16:52.134Z,29.22
2018-05-25T17:19:20.594Z,29.25
2018-05-25T17:21:49.010Z,29.29
2018-05-25T17:24:17.419Z,29.30
2018-05-25T17:26:45.838Z,29.45
2018-05-25T17:29:14.192Z,29.34
2018-05-25T17:31:43.292Z,29.47
2018-05-25T17:34:12.448Z,29.61
2018-05-25T17:36:40.903Z,29.68
2018-05-25T17:39:09.294Z,29.77
2018-05-25T17:41:37.689Z,29.86
2018-05-25T17:44:06.047Z,29.81
2018-05-25T17:46:34.423Z,29.88
2018-05-25T17:49:02.768Z,29.80
2018-05-25T17:51:31.137Z,30.05
2018-05-25T17:54:00.274Z,30.18
2018-05-25T17:56:28.737Z,30.01
2018-05-25T17:58:57.207Z,30.23
2018-05-25T18:01:26.383Z,30.23
2018-05-25T18:03:55.586Z,30.31
2018-05-25T18:06:24.743Z,30.24
2018-05-25T18:08:53.122Z,30.31
2018-05-25T18:11:21.543Z,30.43
2018-05-25T18:13:50.651Z,30.58
2018-05-25T18:16:18.993Z,30.71
2018-05-25T18:18:47.404Z,30.89
2018-05-25T18:21:16.500Z,30.82
2018-05-25T18:23:45.668Z,31.06
2018-05-25T18:26:14.064Z,31.10
2018-05-25T18:28:43.206Z,31.18
2018-05-25T18:31:11.627Z,31.44
2018-05-25T18:33:40.757Z,31.55
2018-05-25T18:36:09.135Z,31.70
2018-05-25T18:38:37.486Z,31.84
2018-05-25T18:41:06.623Z,31.96
2018-05-25T18:43:35.109Z,32.01
2018-05-25T18:46:03.460Z,32.19
2018-05-25T18:48:32.633Z,32.28
2018-05-25T18:51:01.770Z,32.41
2018-05-25T18:53:30.159Z,32.48
2018-05-25T18:55:58.630Z,32.63
2018-05-25T18:58:26.980Z,32.71
2018-05-25T19:00:56.209Z,32.91
2018-05-25T19:03:24.598Z,33.00
2018-05-25T19:05:53.067Z,33.09
2018-05-25T19:08:21.555Z,33.40
2018-05-25T19:10:49.934Z,33.44
2018-05-25T19:13:18.352Z,33.54
2018-05-25T19:15:46.700Z,33.66
2018-05-25T19:18:15.157Z,33.73
2018-05-25T19:20:43.540Z,33.86
2018-05-25T19:23:11.911Z,34.08
2018-05-25T19:25:40.246Z,34.11
2018-05-25T19:28:08.626Z,34.16
2018-05-25T19:30:37.003Z,34.25
2018-05-25T19:33:05.408Z,34.45
2018-05-25T19:35:34.645Z,34.57
2018-05-25T19:38:03.122Z,34.47
2018-05-25T19:40:31.467Z,34.55
2018-05-25T19:43:00.609Z,34.67
2018-05-25T19:45:29.014Z,34.71
2018-05-25T19:47:58.148Z,34.93
2018-05-25T19:50:26.545Z,34.96
2018-05-25T19:52:55.052Z,35.01
2018-05-25T19:55:23.381Z,35.21
2018-05-25T19:57:52.518Z,35.39
2018-05-25T20:00:20.909Z,35.50
2018-05-25T20:02:49.250Z,35.45
2018-05-25T20:05:17.695Z,35.50
2018-05-25T20:07:46.069Z,35.72
2018-05-25T20:10:14.422Z,35.72
2018-05-25T20:12:42.869Z,35.81
2018-05-25T20:15:11.322Z,35.98
2018-05-25T20:17:40.448Z,36.04
2018-05-25T20:20:08.850Z,36.08
2018-05-25T20:22:37.271Z,36.20
2018-05-25T20:25:06.480Z,36.19
2018-05-25T20:27:35.675Z,36.40
2018-05-25T20:30:06.699Z,36.44
2018-05-25T20:32:35.819Z,36.51
2018-05-25T20:35:05.068Z,36.61
2018-05-25T20:37:33.411Z,36.74
2018-05-25T20:40:01.804Z,36.81
2018-05-25T20:42:30.199Z,36.73
2018-05-25T20:44:58.576Z,36.86
2018-05-25T20:47:28.836Z,36.89
2018-05-25T20:49:58.033Z,37.03
2018-05-25T20:52:27.156Z,37.03
2018-05-25T20:54:55.509Z,37.03
2018-05-25T20:57:32.681Z,37.08
2018-05-25T21:00:02.589Z,37.14
2018-05-25T21:02:30.964Z,37.22
2018-05-25T21:04:59.329Z,37.14
2018-05-25T21:07:27.751Z,37.18
2018-05-25T21:09:56.856Z,37.27
2018-05-25T21:12:25.191Z,37.26
2018-05-25T21:14:53.561Z,37.41
2018-05-25T21:17:21.996Z,37.49
2018-05-25T21:19:50.391Z,37.42
2018-05-25T21:22:18.744Z,37.51
2018-05-25T21:24:47.193Z,37.53
2018-05-25T21:27:15.583Z,37.68
2018-05-25T21:29:43.934Z,37.75
2018-05-25T21:32:12.314Z,37.89
2018-05-25T21:34:40.732Z,37.93
2018-05-25T21:37:09.884Z,38.09
2018-05-25T21:39:38.308Z,38.09
2018-05-25T21:42:07.420Z,38.01
2018-05-25T21:44:35.823Z,38.07
2018-05-25T21:47:04.341Z,38.20
2018-05-25T21:49:32.690Z,38.38
2018-05-25T21:52:01.114Z,38.39
2018-05-25T21:54:30.261Z,38.35
2018-05-25T21:56:58.596Z,38.37
2018-05-25T21:59:27.835Z,38.52
2018-05-25T22:01:56.203Z,38.65
2018-05-25T22:04:24.543Z,38.54
2018-05-25T22:06:52.879Z,38.62
2018-05-25T22:09:21.243Z,38.69
2018-05-25T22:11:49.689Z,38.84
2018-05-25T22:14:18.828Z,38.89
2018-05-25T22:16:47.315Z,38.97
2018-05-25T22:19:15.657Z,39.10
2018-05-25T22:21:44.853Z,39.13
2018-05-25T22:24:13.192Z,39.24
2018-05-25T22:26:41.584Z,39.39
2018-05-25T22:29:09.934Z,39.35
2018-05-25T22:31:38.323Z,39.48
2018-05-25T22:34:06.689Z,39.53
2018-05-25T22:36:35.073Z,39.52
2018-05-25T22:39:03.445Z,39.73
2018-05-25T22:41:31.817Z,39.89
2018-05-25T22:44:18.072Z,39.94
2018-05-25T22:47:04.246Z,40.07
2018-05-25T22:49:51.062Z,40.09
2018-05-25T22:52:24.895Z,39.98
2018-05-25T22:54:58.223Z,40.15
2018-05-25T22:57:26.603Z,40.28
2018-05-25T22:59:55.031Z,40.29
2018-05-25T23:02:24.224Z,40.43
2018-05-25T23:04:52.611Z,40.57
2018-05-25T23:07:21.733Z,40.76
2018-05-25T23:09:50.120Z,40.83
2018-05-25T23:12:18.566Z,40.71
2018-05-25T23:14:47.679Z,40.74
2018-05-25T23:17:16.085Z,40.75
2018-05-25T23:19:44.461Z,40.88
2018-05-25T23:22:12.921Z,40.91
2018-05-25T23:24:41.374Z,40.92
2018-05-25T23:27:10.535Z,40.84
2018-05-25T23:29:38.871Z,40.92
2018-05-25T23:32:07.238Z,41.16
2018-05-25T23:34:36.386Z,41.17
2018-05-25T23:37:04.783Z,41.26
2018-05-25T23:39:33.188Z,41.37
2018-05-25T23:42:02.422Z,41.43
2018-05-25T23:44:30.780Z,41.44
2018-05-25T23:46:59.148Z,41.49
2018-05-25T23:49:28.280Z,41.55
2018-05-25T23:51:56.698Z,41.70
2018-05-25T23:54:25.083Z,41.71
2018-05-25T23:56:54.226Z,41.86
2018-05-25T23:59:22.795Z,42.06
